Time;durP1;ratioP1;P1;durP2;ratioP2;P2;SDS_P1;SDS_P2;PMS_P1;PMS_P2;Temp;Humidity;BMP_temperature;BMP_pressure;BME280_temperature;BME280_humidity;BME280_pressure;Samples;Min_cycle;Max_cycle;Signal;HPM_P1;HPM_P2
2022/06/07 00:01:02;;;;;;;10.10;5.05;;;;;;;;;;6154847;23;20080;-86
2022/06/07 00:03:57;;;;;;;7.55;4.68;;;;;;;;;;6153330;23;20447;-85
2022/06/07 00:12:39;;;;;;;;;;;;;;;;;;;;;
2022/06/07 00:15:16;;;;;;;;;;;;;;;;;;;;;
2022/06/07 00:36:48;;;;;;;7.07;4.63;;;;;;;;;;5789645;24;20015;-85
2022/06/07 01:04:24;;;;;;;;;;;;;;;;;;;;;
2022/06/07 01:12:32;;;;;;;7.00;4.72;;;;;;;;;;5941282;23;20058;-85
2022/06/07 01:14:58;;;;;;;6.95;4.90;;;;;;;;;;6008773;23;20062;-86
2022/06/07 01:17:25;;;;;;;13.52;5.22;;;;;;;;;;6020244;23;20007;-86
2022/06/07 01:35:26;;;;;;;;;;;;;;;;;;;;;
2022/06/07 01:49:42;;;;;;;7.22;4.30;;;;;;;;;;5816970;24;20094;-86
2022/06/07 01:52:59;;;;;;;;;;;;;;;;;;;;;
2022/06/07 02:08:06;;;;;;;;;;;;;;;;;;;;;
2022/06/07 02:10:48;;;;;;;;;;;;;;;;;;;;;
2022/06/07 02:25:36;;;;;;;;;;;;;;;;;;;;;
2022/06/07 02:28:32;;;;;;;;;;;;;;;;;;;;;
2022/06/07 02:31:29;;;;;;;;;;;;;;;;;;;;;
2022/06/07 02:34:46;;;;;;;;;;;;;;;;;;;;;
2022/06/07 02:49:59;;;;;;;;;;;;;;;;;;;;;
2022/06/07 03:08:17;;;;;;;9.30;5.55;;;;;;;;;;5763523;24;20027;-85
2022/06/07 03:11:16;;;;;;;;;;;;;;;;;;;;;
2022/06/07 03:14:04;;;;;;;;;;;;;;;;;;;;;
2022/06/07 03:17:03;;;;;;;;;;;;;;;;;;;;;
2022/06/07 03:28:44;;;;;;;;;;;;;;;;;;;;;
2022/06/07 03:34:39;;;;;;;;;;;;;;;;;;;;;
2022/06/07 03:37:09;;;;;;;8.82;4.72;;;;;;;;;;5920114;24;20088;-85
2022/06/07 03:46:15;;;;;;;;;;;;;;;;;;;;;
2022/06/07 03:52:11;;;;;;;7.82;4.78;;;;;;;;;;5802373;24;20026;-85
2022/06/07 04:10:03;;;;;;;7.57;4.97;;;;;;;;;;6050327;23;20017;-85
2022/06/07 04:15:35;;;;;;;9.38;5.70;;;;;;;;;;6077883;23;20014;-83
2022/06/07 04:18:01;;;;;;;8.02;5.20;;;;;;;;;;6131488;23;20012;-83
2022/06/07 04:20:27;;;;;;;10.07;6.05;;;;;;;;;;6183736;23;20001;-85
2022/06/07 04:23:01;;;;;;;10.23;5.55;;;;;;;;;;6184955;23;20001;-83
2022/06/07 04:25:30;;;;;;;9.33;5.73;;;;;;;;;;6182471;23;20329;-82
2022/06/07 04:27:56;;;;;;;11.13;6.85;;;;;;;;;;6184094;23;20219;-81
2022/06/07 04:30:22;;;;;;;18.10;14.73;;;;;;;;;;6182734;23;20005;-80
2022/06/07 04:32:49;;;;;;;97.80;85.97;;;;;;;;;;6157768;23;20440;-80
2022/06/07 04:35:17;;;;;;;16.20;14.43;;;;;;;;;;6184038;23;20024;-79
2022/06/07 04:37:44;;;;;;;18.20;14.77;;;;;;;;;;6183992;23;20001;-81
2022/06/07 04:40:10;;;;;;;9.23;7.78;;;;;;;;;;6157454;23;20033;-79
2022/06/07 04:42:36;;;;;;;25.45;20.63;;;;;;;;;;6183459;23;20009;-80
2022/06/07 04:45:03;;;;;;;41.95;37.35;;;;;;;;;;6183686;23;20001;-79
2022/06/07 04:47:30;;;;;;;10.65;8.35;;;;;;;;;;6184073;23;20380;-80
2022/06/07 04:49:56;;;;;;;8.25;5.63;;;;;;;;;;6185895;23;20408;-80
2022/06/07 04:52:22;;;;;;;24.25;18.33;;;;;;;;;;6186089;23;20059;-80
2022/06/07 04:54:48;;;;;;;34.28;29.45;;;;;;;;;;6185825;23;20013;-80
2022/06/07 04:57:14;;;;;;;13.60;9.93;;;;;;;;;;6186040;23;20433;-81
2022/06/07 04:59:40;;;;;;;8.95;5.20;;;;;;;;;;6185310;23;20032;-80
2022/06/07 05:02:07;;;;;;;7.15;5.18;;;;;;;;;;6186095;23;20444;-79
2022/06/07 05:04:33;;;;;;;6.80;5.00;;;;;;;;;;6185790;23;20433;-80
2022/06/07 05:06:59;;;;;;;7.80;5.50;;;;;;;;;;6186074;23;20008;-80
2022/06/07 05:09:26;;;;;;;9.15;5.93;;;;;;;;;;6185944;23;20001;-80
2022/06/07 05:11:53;;;;;;;8.35;6.15;;;;;;;;;;6185741;23;20016;-80
2022/06/07 05:14:19;;;;;;;10.23;5.63;;;;;;;;;;6185816;23;20441;-81
2022/06/07 05:16:45;;;;;;;8.27;5.32;;;;;;;;;;6185774;23;20036;-81
2022/06/07 05:19:12;;;;;;;10.57;5.72;;;;;;;;;;6185761;23;20005;-80
2022/06/07 05:21:39;;;;;;;8.82;5.45;;;;;;;;;;6185103;23;20033;-81
2022/06/07 05:24:05;;;;;;;6.38;5.10;;;;;;;;;;6184969;23;20333;-81
2022/06/07 05:26:38;;;;;;;5.05;3.45;;;;;;;;;;6185212;23;20004;-81
2022/06/07 05:29:11;;;;;;;5.65;4.28;;;;;;;;;;6183124;23;20059;-81
2022/06/07 05:31:37;;;;;;;12.25;5.38;;;;;;;;;;6183061;23;20437;-80
2022/06/07 05:34:03;;;;;;;9.23;5.20;;;;;;;;;;6184382;23;20013;-81
2022/06/07 05:36:29;;;;;;;7.43;4.50;;;;;;;;;;6183728;23;20369;-80
2022/06/07 05:38:56;;;;;;;7.30;4.43;;;;;;;;;;6184779;23;20005;-80
2022/06/07 05:41:25;;;;;;;6.38;4.57;;;;;;;;;;6185659;23;20005;-80
2022/06/07 05:43:51;;;;;;;8.77;5.15;;;;;;;;;;6185302;23;20012;-81
2022/06/07 05:46:17;;;;;;;9.15;7.32;;;;;;;;;;6185046;23;20008;-79
2022/06/07 05:48:43;;;;;;;9.80;5.10;;;;;;;;;;6184551;23;20384;-81
2022/06/07 05:51:10;;;;;;;13.10;6.10;;;;;;;;;;6184894;23;20088;-82
2022/06/07 05:53:38;;;;;;;9.57;4.70;;;;;;;;;;6184051;23;20021;-79
2022/06/07 05:56:23;;;;;;;42.83;36.75;;;;;;;;;;6184065;23;20005;-79
2022/06/07 05:58:49;;;;;;;49.65;34.22;;;;;;;;;;6184047;23;20005;-79
2022/06/07 06:01:16;;;;;;;51.00;41.95;;;;;;;;;;6184734;23;20085;-81
2022/06/07 06:03:43;;;;;;;73.95;57.92;;;;;;;;;;6185257;23;20036;-81
2022/06/07 06:06:10;;;;;;;80.13;59.47;;;;;;;;;;6185244;23;20091;-82
2022/06/07 06:11:22;;;;;;;15.70;7.45;;;;;;;;;;6185518;23;20200;-79
2022/06/07 06:13:48;;;;;;;11.57;6.70;;;;;;;;;;6184730;23;20017;-80
2022/06/07 06:16:18;;;;;;;9.25;6.53;;;;;;;;;;6185112;23;20005;-78
2022/06/07 06:18:45;;;;;;;10.50;6.28;;;;;;;;;;6184548;23;20009;-82
2022/06/07 06:21:11;;;;;;;7.47;5.80;;;;;;;;;;6185139;23;20001;-79
2022/06/07 06:23:37;;;;;;;7.32;4.82;;;;;;;;;;6184007;23;20008;-79
2022/06/07 06:26:10;;;;;;;8.73;5.45;;;;;;;;;;6184899;23;20005;-81
2022/06/07 06:28:37;;;;;;;7.18;4.47;;;;;;;;;;6184944;23;20016;-80
2022/06/07 06:31:05;;;;;;;7.07;5.30;;;;;;;;;;6184792;23;20051;-80
2022/06/07 06:33:42;;;;;;;7.47;5.07;;;;;;;;;;6184822;23;20328;-79
2022/06/07 06:36:09;;;;;;;7.82;4.82;;;;;;;;;;6184522;23;20104;-80
2022/06/07 06:38:35;;;;;;;7.78;5.15;;;;;;;;;;6183983;23;20001;-81
2022/06/07 06:41:20;;;;;;;9.43;4.82;;;;;;;;;;6185008;23;20008;-82
2022/06/07 06:43:47;;;;;;;7.20;4.97;;;;;;;;;;6184537;23;20016;-80
2022/06/07 06:46:15;;;;;;;9.95;7.85;;;;;;;;;;6184428;23;20309;-80
2022/06/07 06:48:43;;;;;;;11.02;7.20;;;;;;;;;;6184397;23;20063;-80
2022/06/07 06:51:10;;;;;;;12.27;5.53;;;;;;;;;;6184361;23;20064;-80
2022/06/07 06:53:37;;;;;;;6.53;4.47;;;;;;;;;;6182595;23;20033;-83
2022/06/07 06:56:03;;;;;;;7.55;5.07;;;;;;;;;;6184343;23;20005;-80
2022/06/07 06:58:29;;;;;;;10.80;8.80;;;;;;;;;;6184449;23;20009;-80
2022/06/07 07:01:14;;;;;;;12.20;9.68;;;;;;;;;;6183680;23;20620;-82
2022/06/07 07:03:41;;;;;;;12.82;10.05;;;;;;;;;;6184269;23;20048;-83
2022/06/07 07:06:08;;;;;;;12.52;9.85;;;;;;;;;;6157908;23;20389;-85
2022/06/07 07:08:35;;;;;;;12.70;10.93;;;;;;;;;;6182628;23;20060;-84
2022/06/07 07:11:20;;;;;;;14.63;11.52;;;;;;;;;;6184173;23;20009;-84
2022/06/07 07:13:47;;;;;;;19.48;16.40;;;;;;;;;;6184082;23;20013;-88
2022/06/07 07:16:15;;;;;;;10.85;9.00;;;;;;;;;;6183529;23;20038;-82
2022/06/07 07:18:42;;;;;;;10.98;8.20;;;;;;;;;;6183032;23;20028;-82
2022/06/07 07:21:09;;;;;;;11.50;7.72;;;;;;;;;;6181866;23;20009;-84
2022/06/07 07:23:36;;;;;;;10.30;7.30;;;;;;;;;;6183582;23;20330;-84
2022/06/07 07:26:06;;;;;;;7.30;5.72;;;;;;;;;;6183272;23;20009;-82
2022/06/07 07:28:34;;;;;;;7.55;5.28;;;;;;;;;;6184048;23;20084;-81
2022/06/07 07:31:04;;;;;;;18.10;14.30;;;;;;;;;;6182424;23;20333;-84
2022/06/07 07:33:34;;;;;;;91.70;81.90;;;;;;;;;;6183468;23;20040;-81
2022/06/07 07:36:05;;;;;;;46.63;41.58;;;;;;;;;;6183629;23;20076;-80
2022/06/07 07:38:31;;;;;;;25.15;21.13;;;;;;;;;;6184075;23;20076;-84
2022/06/07 07:40:57;;;;;;;14.02;12.60;;;;;;;;;;6183682;23;20012;-83
2022/06/07 07:43:23;;;;;;;8.75;7.72;;;;;;;;;;6158091;23;20492;-81
2022/06/07 07:45:53;;;;;;;60.70;54.45;;;;;;;;;;6181374;23;20009;-84
2022/06/07 07:48:19;;;;;;;39.00;35.03;;;;;;;;;;6184147;23;20004;-83
2022/06/07 07:50:46;;;;;;;26.80;24.08;;;;;;;;;;6157482;23;20005;-81
2022/06/07 07:53:12;;;;;;;21.27;17.92;;;;;;;;;;6185081;23;20021;-80
2022/06/07 07:55:42;;;;;;;28.02;25.38;;;;;;;;;;6186624;23;20005;-82
2022/06/07 07:58:09;;;;;;;15.38;13.77;;;;;;;;;;6183056;23;20472;-76
2022/06/07 08:00:35;;;;;;;7.85;7.07;;;;;;;;;;6181918;23;20079;-79
2022/06/07 08:03:01;;;;;;;8.73;5.85;;;;;;;;;;6183963;23;20008;-79
2022/06/07 08:05:27;;;;;;;12.05;6.90;;;;;;;;;;6183663;23;20421;-82
2022/06/07 08:07:55;;;;;;;12.25;6.25;;;;;;;;;;6183459;23;20048;-82
2022/06/07 08:10:21;;;;;;;9.15;7.30;;;;;;;;;;6183472;23;20005;-83
2022/06/07 08:12:47;;;;;;;7.95;5.90;;;;;;;;;;6182614;23;20042;-83
2022/06/07 08:15:21;;;;;;;7.38;5.93;;;;;;;;;;6183605;23;20017;-83
2022/06/07 08:18:03;;;;;;;7.18;5.55;;;;;;;;;;6180891;23;20144;-83
2022/06/07 08:20:30;;;;;;;7.43;6.07;;;;;;;;;;6181068;23;20033;-80
2022/06/07 08:23:30;;;;;;;;;;;;;;;;;;;;;
2022/06/07 08:26:14;;;;;;;9.98;6.15;;;;;;;;;;6185404;23;20071;-81
2022/06/07 08:37:38;;;;;;;6.20;5.38;;;;;;;;;;6185620;23;20084;-81
2022/06/07 08:40:06;;;;;;;6.45;4.68;;;;;;;;;;6183731;23;20039;-82
2022/06/07 08:42:34;;;;;;;6.20;4.40;;;;;;;;;;6184191;23;20329;-83
2022/06/07 08:45:01;;;;;;;6.75;4.55;;;;;;;;;;6185000;23;20008;-82
2022/06/07 08:47:34;;;;;;;4.72;4.20;;;;;;;;;;6185966;23;20479;-82
2022/06/07 08:50:04;;;;;;;6.90;4.57;;;;;;;;;;6179651;23;20092;-80
2022/06/07 08:52:31;;;;;;;5.80;4.72;;;;;;;;;;6179127;23;20025;-79
2022/06/07 08:54:58;;;;;;;6.93;4.28;;;;;;;;;;6184925;23;20104;-83
2022/06/07 08:57:26;;;;;;;7.03;3.92;;;;;;;;;;6184676;23;20001;-80
2022/06/07 08:59:56;;;;;;;4.80;3.80;;;;;;;;;;6185280;23;20437;-80
2022/06/07 09:02:43;;;;;;;7.43;4.90;;;;;;;;;;6185689;23;20028;-81
2022/06/07 09:05:16;;;;;;;7.22;4.22;;;;;;;;;;6183709;23;20428;-81
2022/06/07 09:07:43;;;;;;;8.88;4.20;;;;;;;;;;6184836;23;20467;-79
2022/06/07 09:13:03;;;;;;;13.43;10.65;;;;;;;;;;6185848;23;20079;-80
2022/06/07 09:15:31;;;;;;;7.28;4.68;;;;;;;;;;6185431;23;20013;-81
2022/06/07 09:17:59;;;;;;;6.45;4.35;;;;;;;;;;6185859;23;20076;-81
2022/06/07 09:20:32;;;;;;;5.18;4.30;;;;;;;;;;6184029;23;20009;-80
2022/06/07 09:23:02;;;;;;;8.82;4.43;;;;;;;;;;6185437;23;20005;-80
2022/06/07 09:25:34;;;;;;;10.80;4.40;;;;;;;;;;6184707;23;20084;-80
2022/06/07 09:28:00;;;;;;;6.93;3.65;;;;;;;;;;6184563;23;20100;-79
2022/06/07 09:30:28;;;;;;;6.18;3.70;;;;;;;;;;6184831;23;20052;-79
2022/06/07 09:32:54;;;;;;;5.25;3.20;;;;;;;;;;6185791;23;20005;-80
2022/06/07 09:35:38;;;;;;;18.38;12.82;;;;;;;;;;6183252;23;20013;-83
2022/06/07 09:38:15;;;;;;;13.67;10.70;;;;;;;;;;6185990;23;20005;-84
2022/06/07 09:40:54;;;;;;;10.85;9.27;;;;;;;;;;6183200;23;20215;-81
2022/06/07 09:43:23;;;;;;;8.70;6.63;;;;;;;;;;6184939;23;20071;-82
2022/06/07 09:45:52;;;;;;;7.43;5.93;;;;;;;;;;6185084;23;20128;-81
2022/06/07 09:48:18;;;;;;;7.43;5.10;;;;;;;;;;6184902;23;20072;-82
2022/06/07 09:50:54;;;;;;;5.38;3.78;;;;;;;;;;6185061;23;20060;-81
2022/06/07 09:53:20;;;;;;;4.15;3.28;;;;;;;;;;6184276;23;20084;-81
2022/06/07 09:55:52;;;;;;;7.18;4.07;;;;;;;;;;6184496;23;20029;-82
2022/06/07 09:58:41;;;;;;;8.15;3.97;;;;;;;;;;6184679;23;20321;-80
2022/06/07 10:01:27;;;;;;;6.43;4.18;;;;;;;;;;6182344;23;20433;-80
2022/06/07 10:04:12;;;;;;;8.32;4.90;;;;;;;;;;6169577;23;20001;-81
2022/06/07 10:06:43;;;;;;;5.32;3.72;;;;;;;;;;6183865;23;20119;-80
2022/06/07 10:09:28;;;;;;;4.75;3.67;;;;;;;;;;6183983;23;20033;-80
2022/06/07 10:11:58;;;;;;;7.03;4.00;;;;;;;;;;6182177;23;20005;-81
2022/06/07 10:14:42;;;;;;;4.88;3.35;;;;;;;;;;6183742;23;20727;-80
2022/06/07 10:17:27;;;;;;;7.70;5.07;;;;;;;;;;6184959;23;20005;-80
2022/06/07 10:20:06;;;;;;;8.05;5.63;;;;;;;;;;6184069;23;20005;-80
2022/06/07 10:22:37;;;;;;;4.60;3.83;;;;;;;;;;6184546;23;20451;-77
2022/06/07 10:25:22;;;;;;;4.88;3.47;;;;;;;;;;6184862;23;19997;-79
2022/06/07 10:27:58;;;;;;;7.15;3.35;;;;;;;;;;6183461;23;20048;-81
2022/06/07 10:30:24;;;;;;;7.07;3.70;;;;;;;;;;6184371;23;20056;-80
2022/06/07 10:33:09;;;;;;;6.80;4.20;;;;;;;;;;6184405;23;20009;-81
2022/06/07 10:35:54;;;;;;;7.22;3.58;;;;;;;;;;6183630;23;20051;-81
2022/06/07 10:38:39;;;;;;;7.85;4.75;;;;;;;;;;6184372;23;20401;-79
2022/06/07 10:41:12;;;;;;;4.95;3.50;;;;;;;;;;6184089;23;20005;-81
2022/06/07 10:43:56;;;;;;;11.07;7.93;;;;;;;;;;6182596;23;20064;-79
2022/06/07 10:46:23;;;;;;;9.98;5.32;;;;;;;;;;6184188;23;20008;-79
2022/06/07 10:49:08;;;;;;;8.35;4.85;;;;;;;;;;6184631;23;20076;-80
2022/06/07 10:54:25;;;;;;;6.10;3.97;;;;;;;;;;6152575;23;20035;-79
2022/06/07 10:57:03;;;;;;;4.82;3.42;;;;;;;;;;6151023;23;20041;-78
2022/06/07 10:59:31;;;;;;;5.65;3.97;;;;;;;;;;6153365;23;20005;-79
2022/06/07 11:02:04;;;;;;;8.02;4.22;;;;;;;;;;6153354;23;20009;-77
2022/06/07 11:10:21;;;;;;;5.38;3.67;;;;;;;;;;6153521;23;20064;-78
2022/06/07 11:13:05;;;;;;;4.80;3.30;;;;;;;;;;6152895;23;20012;-77
2022/06/07 11:15:51;;;;;;;4.68;2.53;;;;;;;;;;6151925;23;20061;-77
2022/06/07 11:18:20;;;;;;;6.25;4.80;;;;;;;;;;6153471;23;20018;-80
2022/06/07 11:20:50;;;;;;;8.80;7.72;;;;;;;;;;6153619;23;20378;-76
2022/06/07 11:23:23;;;;;;;5.80;4.25;;;;;;;;;;6154661;23;20064;-76
2022/06/07 11:26:02;;;;;;;7.47;3.72;;;;;;;;;;6153753;23;20025;-76
2022/06/07 11:28:43;;;;;;;8.35;5.90;;;;;;;;;;6152703;23;20480;-76
2022/06/07 11:31:32;;;;;;;6.10;3.53;;;;;;;;;;6152737;23;20001;-77
2022/06/07 11:33:59;;;;;;;7.95;4.15;;;;;;;;;;6150979;23;20088;-77
2022/06/07 11:36:35;;;;;;;4.20;2.53;;;;;;;;;;6153922;23;20012;-78
2022/06/07 11:39:18;;;;;;;7.22;4.32;;;;;;;;;;6153513;23;20392;-76
2022/06/07 11:41:51;;;;;;;3.65;3.13;;;;;;;;;;6153826;23;20299;-77
2022/06/07 11:44:17;;;;;;;6.68;2.85;;;;;;;;;;6152608;23;20080;-78
2022/06/07 11:46:57;;;;;;;17.80;16.15;;;;;;;;;;6154095;23;20265;-79
2022/06/07 11:49:23;;;;;;;6.68;6.07;;;;;;;;;;6153152;23;20128;-77
2022/06/07 11:52:08;;;;;;;6.78;4.18;;;;;;;;;;6156611;23;20023;-78
2022/06/07 11:54:48;;;;;;;8.07;4.30;;;;;;;;;;6183191;23;20025;-79
2022/06/07 11:57:33;;;;;;;4.95;3.03;;;;;;;;;;6183074;23;20031;-79
2022/06/07 12:00:01;;;;;;;28.08;25.70;;;;;;;;;;6183759;23;20060;-80
2022/06/07 12:02:32;;;;;;;9.75;8.85;;;;;;;;;;6183705;23;20068;-79
2022/06/07 12:05:05;;;;;;;5.03;3.28;;;;;;;;;;6182775;23;20052;-78
2022/06/07 12:07:32;;;;;;;68.32;62.00;;;;;;;;;;6182026;23;20021;-78
2022/06/07 12:10:00;;;;;;;42.42;37.92;;;;;;;;;;6182868;23;20001;-80
2022/06/07 12:12:35;;;;;;;8.80;7.90;;;;;;;;;;6181293;23;20699;-79
2022/06/07 12:15:20;;;;;;;7.78;4.68;;;;;;;;;;6181952;23;20013;-81
2022/06/07 12:17:53;;;;;;;3.42;2.83;;;;;;;;;;6182493;23;20063;-78
2022/06/07 12:20:28;;;;;;;12.32;4.60;;;;;;;;;;6181544;23;20453;-79
2022/06/07 12:22:57;;;;;;;5.07;2.20;;;;;;;;;;6182001;23;20008;-79
2022/06/07 12:25:23;;;;;;;3.30;2.70;;;;;;;;;;6181090;23;20012;-76
2022/06/07 12:27:54;;;;;;;7.45;4.93;;;;;;;;;;6182527;23;20005;-78
2022/06/07 12:30:29;;;;;;;4.75;3.17;;;;;;;;;;6183736;23;20030;-76
2022/06/07 12:32:56;;;;;;;8.85;4.25;;;;;;;;;;6180287;23;20013;-78
2022/06/07 12:35:24;;;;;;;5.75;4.20;;;;;;;;;;6182619;23;20076;-79
2022/06/07 12:38:09;;;;;;;4.30;3.40;;;;;;;;;;6182916;23;20013;-79
2022/06/07 12:40:48;;;;;;;5.97;3.67;;;;;;;;;;6180796;23;20005;-79
2022/06/07 12:43:33;;;;;;;4.03;2.72;;;;;;;;;;6183282;23;20079;-81
2022/06/07 12:46:01;;;;;;;7.53;3.28;;;;;;;;;;6183275;23;20010;-79
2022/06/07 12:48:33;;;;;;;4.78;3.30;;;;;;;;;;6182121;23;20025;-82
2022/06/07 12:50:59;;;;;;;8.70;3.92;;;;;;;;;;6183941;23;20302;-82
2022/06/07 12:53:26;;;;;;;4.07;2.15;;;;;;;;;;6182839;23;20025;-80
2022/06/07 12:56:04;;;;;;;7.72;5.95;;;;;;;;;;6181740;23;20095;-81
2022/06/07 12:58:33;;;;;;;5.60;3.83;;;;;;;;;;6182857;23;20005;-81
2022/06/07 13:01:01;;;;;;;6.38;4.25;;;;;;;;;;6182281;23;20395;-79
2022/06/07 13:03:29;;;;;;;2.80;2.47;;;;;;;;;;6182348;23;20445;-79
2022/06/07 13:06:14;;;;;;;3.67;2.20;;;;;;;;;;6182529;23;20040;-79
2022/06/07 13:08:41;;;;;;;4.57;2.80;;;;;;;;;;6183803;23;20071;-78
2022/06/07 13:11:11;;;;;;;45.75;41.17;;;;;;;;;;6183473;23;20031;-81
2022/06/07 13:13:41;;;;;;;16.05;14.43;;;;;;;;;;6184055;23;20501;-80
2022/06/07 13:16:25;;;;;;;10.07;6.32;;;;;;;;;;6156480;23;20424;-79
2022/06/07 13:18:59;;;;;;;4.88;3.97;;;;;;;;;;6183117;23;20089;-81
2022/06/07 13:21:31;;;;;;;3.33;2.45;;;;;;;;;;6184499;23;20440;-82
2022/06/07 13:23:58;;;;;;;4.50;2.78;;;;;;;;;;6184865;23;20005;-82
2022/06/07 13:26:27;;;;;;;4.70;2.85;;;;;;;;;;6185223;23;20004;-81
2022/06/07 13:29:02;;;;;;;5.05;3.00;;;;;;;;;;6184445;23;20005;-82
2022/06/07 13:31:47;;;;;;;5.97;2.53;;;;;;;;;;6185305;23;20001;-81
2022/06/07 13:34:17;;;;;;;4.90;3.53;;;;;;;;;;6183396;23;20016;-82
2022/06/07 13:36:43;;;;;;;3.65;3.13;;;;;;;;;;6185298;23;20008;-81
2022/06/07 13:39:28;;;;;;;9.00;3.83;;;;;;;;;;6184060;23;20437;-83
2022/06/07 13:42:09;;;;;;;2.67;2.13;;;;;;;;;;6185389;23;19997;-82
2022/06/07 13:44:40;;;;;;;5.53;2.92;;;;;;;;;;6183524;23;20348;-80
2022/06/07 13:47:20;;;;;;;3.85;2.10;;;;;;;;;;6185792;23;20026;-82
2022/06/07 13:55:45;;;;;;;3.85;2.38;;;;;;;;;;6184972;23;20028;-81
2022/06/07 13:58:13;;;;;;;2.92;2.33;;;;;;;;;;6184516;23;20021;-83
2022/06/07 14:00:41;;;;;;;5.50;5.00;;;;;;;;;;6185111;23;20480;-83
2022/06/07 14:03:16;;;;;;;4.38;2.53;;;;;;;;;;6183870;23;20032;-83
2022/06/07 14:05:42;;;;;;;3.33;2.28;;;;;;;;;;6185533;23;20009;-82
2022/06/07 14:08:13;;;;;;;3.78;2.50;;;;;;;;;;6183514;23;20041;-81
2022/06/07 14:10:39;;;;;;;3.70;2.85;;;;;;;;;;6182603;23;20107;-82
2022/06/07 14:13:05;;;;;;;3.95;2.58;;;;;;;;;;6184185;23;20433;-82
2022/06/07 14:15:34;;;;;;;4.22;2.88;;;;;;;;;;6184873;23;20087;-82
2022/06/07 14:18:11;;;;;;;3.55;2.35;;;;;;;;;;6183887;23;20337;-84
2022/06/07 14:20:38;;;;;;;5.07;2.78;;;;;;;;;;6182411;23;20005;-82
2022/06/07 14:23:07;;;;;;;4.28;2.17;;;;;;;;;;6183402;23;20068;-82
2022/06/07 14:25:34;;;;;;;3.95;2.10;;;;;;;;;;6182793;23;20028;-83
2022/06/07 14:28:00;;;;;;;4.40;2.25;;;;;;;;;;6182531;23;20013;-83
2022/06/07 14:30:27;;;;;;;3.22;1.92;;;;;;;;;;6182799;23;20008;-83
2022/06/07 14:32:57;;;;;;;2.72;2.10;;;;;;;;;;6182904;23;20012;-82
2022/06/07 14:35:24;;;;;;;2.80;1.92;;;;;;;;;;6184970;23;20452;-83
2022/06/07 14:37:59;;;;;;;4.10;2.13;;;;;;;;;;6184773;23;20016;-83
2022/06/07 14:40:27;;;;;;;10.93;4.65;;;;;;;;;;6183792;23;20009;-83
2022/06/07 14:42:54;;;;;;;4.03;3.50;;;;;;;;;;6184064;23;20036;-81
2022/06/07 14:45:22;;;;;;;3.25;2.13;;;;;;;;;;6185027;23;19997;-81
2022/06/07 14:47:56;;;;;;;3.55;2.97;;;;;;;;;;6184446;23;20009;-81
2022/06/07 14:50:23;;;;;;;3.42;2.13;;;;;;;;;;6182890;23;20012;-80
2022/06/07 14:52:49;;;;;;;4.38;2.13;;;;;;;;;;6184411;23;20025;-81
2022/06/07 14:55:18;;;;;;;6.20;2.72;;;;;;;;;;6184457;23;20077;-79
2022/06/07 14:57:47;;;;;;;4.00;2.97;;;;;;;;;;6184512;23;20004;-80
2022/06/07 15:00:14;;;;;;;3.33;2.45;;;;;;;;;;6183605;23;20071;-82
2022/06/07 15:02:42;;;;;;;3.40;2.42;;;;;;;;;;6184873;23;20326;-82
2022/06/07 15:05:20;;;;;;;3.15;1.70;;;;;;;;;;6184915;23;20554;-81
2022/06/07 15:08:05;;;;;;;5.63;2.03;;;;;;;;;;6184508;23;20012;-81
2022/06/07 15:10:32;;;;;;;5.38;2.30;;;;;;;;;;6183279;23;20012;-83
2022/06/07 15:12:59;;;;;;;4.60;2.53;;;;;;;;;;6184299;23;20025;-80
2022/06/07 15:15:26;;;;;;;3.60;2.03;;;;;;;;;;6184709;23;20459;-80
2022/06/07 15:17:55;;;;;;;3.38;2.10;;;;;;;;;;6184141;23;20033;-81
2022/06/07 15:20:32;;;;;;;3.40;2.13;;;;;;;;;;6183990;23;20341;-81
2022/06/07 15:23:00;;;;;;;4.57;3.03;;;;;;;;;;6183927;23;20031;-80
2022/06/07 15:25:27;;;;;;;2.85;1.70;;;;;;;;;;6181699;23;20001;-80
2022/06/07 15:27:53;;;;;;;5.00;2.17;;;;;;;;;;6182167;23;20091;-81
2022/06/07 15:30:20;;;;;;;3.20;2.83;;;;;;;;;;6184536;23;20005;-81
2022/06/07 15:32:46;;;;;;;9.25;8.30;;;;;;;;;;6183830;23;20468;-81
2022/06/07 15:35:19;;;;;;;2.47;2.28;;;;;;;;;;6182419;23;20035;-81
2022/06/07 15:37:47;;;;;;;2.80;2.00;;;;;;;;;;6183339;23;20425;-81
2022/06/07 15:40:13;;;;;;;2.80;2.25;;;;;;;;;;6182518;23;20299;-83
2022/06/07 15:42:51;;;;;;;4.13;3.72;;;;;;;;;;6183959;23;20024;-82
2022/06/07 15:45:30;;;;;;;4.20;3.45;;;;;;;;;;6184208;23;20441;-83
2022/06/07 15:48:03;;;;;;;2.67;2.10;;;;;;;;;;6183965;23;20008;-82
2022/06/07 15:50:32;;;;;;;5.88;2.47;;;;;;;;;;6182530;23;20016;-82
2022/06/07 15:52:59;;;;;;;2.55;2.00;;;;;;;;;;6184362;23;20084;-82
2022/06/07 15:55:33;;;;;;;3.25;1.77;;;;;;;;;;6182358;23;20040;-84
2022/06/07 16:00:51;;;;;;;2.63;2.22;;;;;;;;;;6180785;23;20467;-83
2022/06/07 16:03:17;;;;;;;;;;;;;;;;;;6184182;23;20009;-83
2022/06/07 16:05:48;;;;;;;2.60;1.75;;;;;;;;;;6181768;23;20611;-83
2022/06/07 16:08:27;;;;;;;3.42;2.10;;;;;;;;;;6157340;23;20005;-83
2022/06/07 16:14:18;;;;;;;;;;;;;;;;;;;;;
2022/06/07 16:16:51;;;;;;;;;;;;;;;;;;6159366;23;20076;-85
2022/06/07 16:19:47;;;;;;;2.17;1.70;;;;;;;;;;6184062;23;19904;-84
2022/06/07 16:22:23;;;;;;;;;;;;;;;;;;;;;
2022/06/07 16:34:16;;;;;;;;;;;;;;;;;;;;;
2022/06/07 16:40:01;;;;;;;;;;;;;;;;;;;;;
2022/06/07 16:43:01;;;;;;;;;;;;;;;;;;;;;
2022/06/07 16:46:18;;;;;;;;;;;;;;;;;;;;;
2022/06/07 16:48:34;;;;;;;4.82;3.65;;;;;;;;;;6112207;23;20041;-84
2022/06/07 16:51:14;;;;;;;;;;;;;;;;;;;;;
2022/06/07 16:54:00;;;;;;;3.28;2.35;;;;;;;;;;6121979;23;20467;-83
2022/06/07 16:56:27;;;;;;;3.65;2.72;;;;;;;;;;6098987;23;20033;-83
2022/06/07 16:58:57;;;;;;;4.57;2.50;;;;;;;;;;6123488;23;20375;-84
2022/06/07 17:13:31;;;;;;;6.57;2.95;;;;;;;;;;6035637;23;20011;-84
2022/06/07 17:16:15;;;;;;;7.68;3.67;;;;;;;;;;6053154;23;20022;-85
2022/06/07 17:19:04;;;;;;;;;;;;;;;;;;6115705;23;20005;-84
2022/06/07 17:22:09;;;;;;;4.20;2.78;;;;;;;;;;6184901;23;19904;-86
2022/06/07 17:31:27;;;;;;;;;;;;;;;;;;;;;
2022/06/07 17:34:17;;;;;;;4.53;3.35;;;;;;;;;;5980811;24;20523;-85
2022/06/07 17:40:17;;;;;;;;;;;;;;;;;;;;;
2022/06/07 17:52:11;;;;;;;6.00;4.10;;;;;;;;;;5929816;24;20095;-87
2022/06/07 17:55:15;;;;;;;;;;;;;;;;;;;;;
2022/06/07 18:06:51;;;;;;;3.78;3.20;;;;;;;;;;5842874;24;20093;-86
2022/06/07 18:09:58;;;;;;;5.15;3.20;;;;;;;;;;5843425;24;20017;-87
2022/06/07 18:19:06;;;;;;;5.53;4.07;;;;;;;;;;5815039;24;20010;-87
2022/06/07 18:31:27;;;;;;;;;;;;;;;;;;;;;
2022/06/07 18:40:18;;;;;;;;;;;;;;;;;;;;;
2022/06/07 18:52:46;;;;;;;7.30;4.18;;;;;;;;;;5892504;24;20063;-85
2022/06/07 18:55:41;;;;;;;4.82;3.53;;;;;;;;;;5941275;24;20349;-87
2022/06/07 19:11:01;;;;;;;;;;;;;;;;;;;;;
2022/06/07 19:13:48;;;;;;;5.80;5.13;;;;;;;;;;5837917;24;20085;-87
2022/06/07 19:19:50;;;;;;;;;;;;;;;;;;;;;
2022/06/07 19:25:23;;;;;;;8.70;4.45;;;;;;;;;;5789872;24;20432;-86
2022/06/07 19:31:16;;;;;;;8.60;6.10;;;;;;;;;;5736705;25;20016;-86
2022/06/07 19:52:47;;;;;;;;;;;;;;;;;;;;;
2022/06/07 19:55:53;;;;;;;;;;;;;;;;;;;;;
2022/06/07 20:08:12;;;;;;;;;;;;;;;;;;;;;
2022/06/07 20:35:44;;;;;;;;;;;;;;;;;;;;;
2022/06/07 21:02:53;;;;;;;6.82;5.25;;;;;;;;;;5831055;24;20007;-88
2022/06/07 21:17:41;;;;;;;7.55;6.85;;;;;;;;;;5776480;24;20012;-86
2022/06/07 21:36:28;;;;;;;;;;;;;;;;;;;;;
2022/06/07 21:39:17;;;;;;;;;;;;;;;;;;;;;
2022/06/07 22:22:18;;;;;;;;;;;;;;;;;;;;;
2022/06/07 22:37:26;;;;;;;;;;;;;;;;;;;;;
2022/06/07 23:11:39;;;;;;;;;;;;;;;;;;;;;
2022/06/07 23:45:33;;;;;;;;;;;;;;;;;;;;;
2022/06/07 23:51:48;;;;;;;;;;;;;;;;;;;;;
2022/06/07 23:55:13;;;;;;;;;;;;;;;;;;;;;
